createdAt,value
2023-04-07T05:00:19.650Z,2.94
2023-04-07T05:05:23.971Z,2.91
2023-04-07T05:10:27.530Z,2.89
2023-04-07T05:15:29.649Z,2.94
2023-04-07T05:20:31.952Z,3.02
2023-04-07T05:25:34.342Z,3.07
2023-04-07T05:30:39.194Z,3.12
2023-04-07T05:35:41.492Z,3.23
2023-04-07T05:40:44.630Z,3.38
2023-04-07T05:45:52.586Z,3.56
2023-04-07T05:50:55.657Z,3.74
2023-04-07T05:55:57.259Z,3.92
2023-04-07T06:01:20.317Z,4.12
2023-04-07T06:06:22.821Z,4.33
2023-04-07T06:11:27.109Z,4.49
2023-04-07T06:16:28.906Z,4.48
2023-04-07T06:21:31.524Z,4.47
2023-04-07T06:26:33.635Z,4.52
2023-04-07T06:31:35.466Z,4.60
2023-04-07T06:36:38.184Z,4.78
2023-04-07T06:41:42.914Z,5.03
2023-04-07T06:46:47.356Z,5.33
2023-04-07T06:51:48.905Z,5.59
2023-04-07T06:56:52.718Z,5.80
2023-04-07T07:01:55.847Z,5.98
2023-04-07T07:06:59.314Z,6.13
2023-04-07T07:12:04.062Z,6.26
2023-04-07T07:17:05.881Z,6.37
2023-04-07T07:22:07.399Z,6.51
2023-04-07T07:27:09.869Z,6.63
2023-04-07T07:32:12.161Z,6.72
2023-04-07T07:37:13.770Z,6.81
2023-04-07T07:42:16.206Z,6.88
2023-04-07T07:47:18.588Z,6.98
2023-04-07T07:52:20.802Z,7.10
2023-04-07T07:57:22.319Z,7.18
2023-04-07T08:02:29.560Z,7.30
2023-04-07T08:07:32.143Z,7.49
2023-04-07T08:12:33.694Z,7.68
2023-04-07T08:17:36.509Z,7.79
2023-04-07T08:22:38.090Z,7.92
2023-04-07T08:27:39.655Z,8.01
2023-04-07T08:32:43.722Z,8.20
2023-04-07T08:37:46.359Z,8.46
2023-04-07T08:42:49.198Z,8.69
2023-04-07T08:47:59.081Z,8.90
2023-04-07T08:53:06.346Z,9.10
2023-04-07T08:58:14.978Z,9.41
2023-04-07T09:03:17.888Z,9.70
2023-04-07T09:08:19.315Z,9.95
2023-04-07T09:13:21.944Z,10.18
2023-04-07T09:18:24.026Z,10.34
2023-04-07T09:23:34.329Z,10.49
2023-04-07T09:28:41.676Z,10.70
2023-04-07T09:33:43.463Z,10.87
2023-04-07T09:38:46.203Z,11.04
2023-04-07T09:43:48.322Z,11.19
2023-04-07T09:49:06.512Z,11.35
2023-04-07T09:54:08.722Z,11.53
2023-04-07T09:59:11.043Z,11.69
2023-04-07T10:04:13.180Z,11.79
2023-04-07T10:09:14.800Z,11.88
2023-04-07T10:14:17.677Z,11.95
2023-04-07T10:19:21.688Z,12.04
2023-04-07T10:24:54.932Z,12.05
2023-04-07T10:29:58.617Z,11.98
2023-04-07T10:35:01.262Z,12.04
2023-04-07T10:40:21.613Z,12.14
2023-04-07T10:45:48.566Z,12.26
2023-04-07T10:51:08.080Z,12.27
2023-04-07T10:56:10.661Z,12.28
2023-04-07T11:01:15.676Z,12.40
2023-04-07T11:06:19.581Z,12.56
2023-04-07T11:11:39.100Z,12.73
2023-04-07T11:16:44.252Z,12.75
2023-04-07T11:21:46.780Z,12.79
2023-04-07T11:26:50.483Z,13.08
2023-04-07T11:31:52.762Z,13.33
2023-04-07T11:36:59.426Z,13.53
2023-04-07T11:42:01.051Z,13.58
2023-04-07T11:47:03.843Z,13.48
2023-04-07T11:52:09.457Z,13.57
2023-04-07T11:57:13.174Z,13.56
2023-04-07T12:02:34.878Z,13.56
2023-04-07T12:07:39.556Z,13.63
2023-04-07T12:12:46.318Z,13.78
2023-04-07T12:17:49.300Z,13.73
2023-04-07T12:22:51.579Z,13.63
2023-04-07T12:27:54.642Z,13.54
2023-04-07T12:32:56.767Z,13.44
2023-04-07T12:37:58.473Z,13.45
2023-04-07T12:43:00.358Z,13.51
2023-04-07T12:48:02.235Z,13.59
2023-04-07T12:53:05.176Z,13.63
2023-04-07T12:58:07.677Z,13.94
2023-04-07T13:03:10.026Z,14.19
2023-04-07T13:08:11.779Z,14.33
2023-04-07T13:13:13.496Z,14.36
2023-04-07T13:18:15.282Z,14.30
2023-04-07T13:23:18.679Z,14.16
2023-04-07T13:28:21.111Z,14.06
2023-04-07T13:33:22.712Z,13.86
2023-04-07T13:38:24.319Z,13.72
2023-04-07T13:43:26.287Z,14.18
2023-04-07T13:48:28.024Z,14.43
2023-04-07T13:53:29.680Z,14.60
2023-04-07T13:58:32.950Z,14.54
2023-04-07T14:03:35.839Z,14.68
2023-04-07T14:08:39.352Z,15.01
2023-04-07T14:13:41.173Z,14.84
2023-04-07T14:18:43.147Z,14.57
2023-04-07T14:23:45.124Z,14.40
2023-04-07T14:28:47.709Z,14.38
2023-04-07T14:33:49.496Z,14.37
2023-04-07T14:38:52.957Z,14.22
2023-04-07T14:43:59.345Z,14.10
2023-04-07T14:49:01.694Z,14.00
2023-04-07T14:54:04.127Z,13.94
2023-04-07T14:59:05.827Z,13.96
2023-04-07T15:04:08.038Z,14.07
2023-04-07T15:09:11.565Z,14.10
2023-04-07T15:14:14.629Z,14.26
2023-04-07T15:19:16.796Z,14.47
2023-04-07T15:24:19.498Z,14.27
2023-04-07T15:29:21.351Z,13.63
2023-04-07T15:34:23.067Z,13.20
2023-04-07T15:39:24.601Z,12.94
2023-04-07T15:44:26.079Z,12.77
2023-04-07T15:49:27.524Z,12.61
2023-04-07T15:54:29.000Z,12.36
2023-04-07T15:59:30.974Z,12.16
2023-04-07T16:04:32.828Z,11.95
2023-04-07T16:09:34.560Z,11.82
2023-04-07T16:14:36.425Z,11.70
2023-04-07T16:19:38.049Z,11.50
2023-04-07T16:24:40.119Z,11.36
2023-04-07T16:29:41.580Z,11.29
2023-04-07T16:34:45.928Z,11.18
2023-04-07T16:39:47.494Z,11.08
2023-04-07T16:44:49.416Z,10.94
2023-04-07T16:49:51.187Z,10.77
2023-04-07T16:54:52.746Z,10.67
2023-04-07T16:59:57.043Z,10.61
2023-04-07T17:04:58.872Z,10.53
2023-04-07T17:10:00.623Z,10.37
2023-04-07T17:15:02.253Z,10.25
2023-04-07T17:20:04.648Z,10.22
2023-04-07T17:25:06.656Z,10.04
2023-04-07T17:30:08.670Z,9.95
2023-04-07T17:35:10.197Z,9.86
2023-04-07T17:40:12.237Z,9.73
2023-04-07T17:45:13.790Z,9.61
2023-04-07T17:50:16.282Z,9.54
2023-04-07T17:55:17.880Z,9.43
2023-04-07T18:00:19.470Z,9.37
2023-04-07T18:05:21.449Z,9.29
2023-04-07T18:10:23.002Z,9.17
2023-04-07T18:15:24.520Z,9.09
2023-04-07T18:20:25.996Z,8.94
2023-04-07T18:25:28.229Z,8.93
2023-04-07T18:30:29.756Z,8.89
2023-04-07T18:35:31.890Z,8.85
2023-04-07T18:40:34.206Z,8.82
2023-04-07T18:45:36.771Z,8.76
2023-04-07T18:50:38.217Z,8.71
2023-04-07T18:55:39.643Z,8.59
2023-04-07T19:00:42.249Z,8.45
2023-04-07T19:05:47.291Z,8.40
2023-04-07T19:10:50.965Z,8.39
2023-04-07T19:15:52.997Z,8.32
2023-04-07T19:20:55.220Z,8.26
2023-04-07T19:25:56.708Z,8.21
2023-04-07T19:30:58.230Z,8.18
2023-04-07T19:35:59.796Z,8.09
2023-04-07T19:41:01.368Z,8.09
2023-04-07T19:46:03.560Z,8.07
2023-04-07T19:51:07.115Z,8.02
2023-04-07T19:56:08.860Z,7.95
2023-04-07T20:01:19.407Z,7.84
2023-04-07T20:06:24.610Z,7.77
2023-04-07T20:11:26.130Z,7.75
2023-04-07T20:16:27.705Z,7.71
2023-04-07T20:21:29.674Z,7.66
2023-04-07T20:26:31.145Z,7.59
2023-04-07T20:31:32.582Z,7.54
2023-04-07T20:36:34.042Z,7.53
2023-04-07T20:41:35.633Z,7.52
2023-04-07T20:46:37.156Z,7.52
2023-04-07T20:51:38.637Z,7.47
2023-04-07T20:56:40.450Z,7.44
2023-04-07T21:01:42.150Z,7.40
2023-04-07T21:06:43.606Z,7.38
2023-04-07T21:11:45.070Z,7.35
2023-04-07T21:16:46.501Z,7.30
2023-04-07T21:21:48.027Z,7.17
2023-04-07T21:26:49.722Z,7.05
2023-04-07T21:31:51.154Z,7.06
2023-04-07T21:36:52.709Z,6.97
2023-04-07T21:41:54.170Z,6.87
2023-04-07T21:46:55.755Z,6.81
2023-04-07T21:51:57.995Z,6.81
2023-04-07T21:57:00.844Z,6.82
